Time;durP1;ratioP1;P1;durP2;ratioP2;P2;SDS_P1;SDS_P2;PMS_P1;PMS_P2;Temp;Humidity;BMP_temperature;BMP_pressure;BME280_temperature;BME280_humidity;BME280_pressure;Samples;Min_cycle;Max_cycle;Signal;HPM_P1;HPM_P2
2022/11/07 00:01:31;;;;;;;7.95;4.70;;;22.40;58.40;;;;;;5053676;28;20395;-63
2022/11/07 00:03:56;;;;;;;7.10;4.53;;;22.40;58.50;;;;;;5050760;28;20400;-62
2022/11/07 00:06:22;;;;;;;8.82;4.75;;;22.40;58.50;;;;;;5058927;28;20090;-63
2022/11/07 00:08:48;;;;;;;7.80;4.75;;;22.30;58.50;;;;;;5058838;28;20036;-64
2022/11/07 00:11:14;;;;;;;6.88;4.05;;;22.30;58.60;;;;;;5061420;28;20028;-63
2022/11/07 00:13:39;;;;;;;7.10;4.63;;;22.30;58.60;;;;;;5055100;28;20040;-62
2022/11/07 00:16:08;;;;;;;7.53;4.47;;;22.30;58.60;;;;;;5052166;28;20064;-63
2022/11/07 00:18:34;;;;;;;7.13;4.43;;;22.20;58.60;;;;;;5054323;28;20028;-64
2022/11/07 00:21:01;;;;;;;7.40;4.45;;;22.30;58.60;;;;;;5057210;28;20041;-63
2022/11/07 00:23:27;;;;;;;7.22;3.90;;;22.20;58.60;;;;;;5050930;28;20499;-63
2022/11/07 00:25:53;;;;;;;8.35;4.75;;;22.20;59.00;;;;;;5061186;28;20037;-63
2022/11/07 00:28:18;;;;;;;8.88;4.53;;;22.20;58.70;;;;;;5060269;28;20044;-63
2022/11/07 00:30:44;;;;;;;7.38;4.40;;;22.20;58.70;;;;;;5054035;28;20407;-63
2022/11/07 00:33:09;;;;;;;6.55;4.07;;;22.20;58.80;;;;;;5056161;28;20036;-63
2022/11/07 00:35:40;;;;;;;7.50;4.60;;;22.10;58.80;;;;;;5054681;28;20029;-63
2022/11/07 00:38:06;;;;;;;7.10;4.22;;;22.10;58.80;;;;;;5051630;28;20021;-64
2022/11/07 00:40:32;;;;;;;5.55;3.67;;;22.10;58.80;;;;;;5055249;28;20024;-62
2022/11/07 00:42:57;;;;;;;6.55;4.35;;;22.10;58.90;;;;;;5051126;28;20028;-62
2022/11/07 00:45:23;;;;;;;6.60;4.10;;;22.10;58.90;;;;;;5059791;28;20067;-63
2022/11/07 00:47:50;;;;;;;7.97;4.13;;;22.10;58.90;;;;;;5065062;28;20029;-62
2022/11/07 00:50:16;;;;;;;6.25;3.83;;;22.00;58.90;;;;;;5052105;28;20384;-63
2022/11/07 00:52:42;;;;;;;6.90;4.20;;;22.00;58.90;;;;;;5054263;28;20025;-63
2022/11/07 00:55:08;;;;;;;6.32;3.90;;;22.10;59.00;;;;;;5058430;28;20472;-64
2022/11/07 00:57:33;;;;;;;7.28;4.15;;;22.00;59.00;;;;;;5053276;28;20472;-63
2022/11/07 00:59:59;;;;;;;7.10;4.43;;;22.00;59.00;;;;;;5055818;28;20491;-64
2022/11/07 01:02:24;;;;;;;5.80;3.85;;;22.00;59.00;;;;;;5052687;28;20037;-62
2022/11/07 01:07:34;;;;;;;5.93;4.13;;;22.00;59.00;;;;;;5056020;28;20039;-63
2022/11/07 01:10:00;;;;;;;7.40;4.55;;;22.00;59.10;;;;;;5049935;28;20107;-63
2022/11/07 01:12:25;;;;;;;6.03;4.10;;;21.90;59.10;;;;;;5054239;28;20523;-62
2022/11/07 01:14:51;;;;;;;6.25;3.75;;;21.90;59.10;;;;;;5048912;28;20021;-63
2022/11/07 01:17:16;;;;;;;5.97;3.60;;;21.90;59.10;;;;;;5055308;28;20040;-64
2022/11/07 01:19:42;;;;;;;6.57;4.00;;;21.90;59.20;;;;;;5052623;28;20072;-62
2022/11/07 01:22:08;;;;;;;5.90;3.75;;;21.90;59.20;;;;;;5052167;28;20128;-63
2022/11/07 01:24:33;;;;;;;5.93;3.60;;;21.90;59.20;;;;;;5067630;28;20028;-62
2022/11/07 01:26:59;;;;;;;6.38;3.88;;;21.90;59.20;;;;;;5052593;28;20404;-64
2022/11/07 01:29:26;;;;;;;6.88;3.90;;;21.90;59.20;;;;;;5055077;28;20041;-62
2022/11/07 01:31:51;;;;;;;6.20;3.78;;;21.90;59.20;;;;;;5053862;28;20079;-62
2022/11/07 01:34:17;;;;;;;5.47;3.50;;;21.90;59.30;;;;;;5056142;28;20060;-62
2022/11/07 01:36:43;;;;;;;4.90;3.22;;;21.80;59.30;;;;;;5055365;28;20467;-62
2022/11/07 01:39:09;;;;;;;6.25;3.92;;;21.80;59.30;;;;;;5051382;28;20025;-63
2022/11/07 01:41:36;;;;;;;6.93;3.70;;;21.80;59.30;;;;;;5054574;28;20082;-63
2022/11/07 01:44:05;;;;;;;6.65;3.65;;;21.80;59.40;;;;;;5057009;28;20060;-64
2022/11/07 01:46:34;;;;;;;5.13;3.57;;;21.80;59.40;;;;;;5054361;28;20052;-62
2022/11/07 01:49:11;;;;;;;4.95;3.42;;;21.70;59.40;;;;;;5052181;28;20255;-65
2022/11/07 01:52:09;;;;;;;5.90;3.40;;;21.70;59.40;;;;;;5053440;28;20032;-62
2022/11/07 01:54:40;;;;;;;5.22;3.40;;;21.70;59.40;;;;;;5053878;28;20044;-63
2022/11/07 01:57:11;;;;;;;6.30;3.67;;;21.70;59.40;;;;;;5053301;28;20450;-62
2022/11/07 01:59:39;;;;;;;5.15;3.42;;;21.70;59.50;;;;;;5052429;28;20452;-63
2022/11/07 02:02:04;;;;;;;5.22;3.38;;;21.70;59.50;;;;;;5058885;28;20035;-61
2022/11/07 02:04:30;;;;;;;5.18;3.20;;;21.70;59.50;;;;;;5053809;28;20036;-64
2022/11/07 02:07:05;;;;;;;5.38;3.47;;;21.70;59.50;;;;;;5049258;28;20044;-64
2022/11/07 02:09:31;;;;;;;5.53;3.40;;;21.60;59.50;;;;;;5058240;28;20107;-64
2022/11/07 02:11:59;;;;;;;4.68;3.33;;;21.60;59.50;;;;;;5053384;28;20104;-63
2022/11/07 02:14:26;;;;;;;5.15;3.25;;;21.60;60.10;;;;;;5052011;28;20025;-64
2022/11/07 02:16:52;;;;;;;5.10;3.28;;;21.60;59.60;;;;;;5056471;28;20490;-63
2022/11/07 02:19:36;;;;;;;4.60;3.22;;;21.60;59.60;;;;;;5051355;28;20063;-63
2022/11/07 02:22:27;;;;;;;5.10;3.13;;;21.60;59.70;;;;;;5055603;28;20037;-64
2022/11/07 02:24:56;;;;;;;5.40;3.20;;;21.60;59.70;;;;;;5046129;28;20040;-63
2022/11/07 02:27:26;;;;;;;5.63;3.50;;;21.50;59.70;;;;;;5053007;28;20400;-64
2022/11/07 02:29:56;;;;;;;5.95;3.75;;;21.60;59.80;;;;;;5056537;28;20539;-64
2022/11/07 02:32:22;;;;;;;5.68;3.47;;;21.50;59.70;;;;;;5053582;28;20484;-63
2022/11/07 02:34:59;;;;;;;4.57;3.00;;;21.50;59.70;;;;;;5056751;28;20040;-63
2022/11/07 02:37:34;;;;;;;6.60;3.50;;;21.50;59.70;;;;;;5057054;28;20099;-63
2022/11/07 02:40:06;;;;;;;4.82;3.35;;;21.50;60.30;;;;;;5057801;28;20055;-63
2022/11/07 02:42:42;;;;;;;4.80;3.05;;;21.50;59.80;;;;;;5048920;28;20115;-63
2022/11/07 02:45:22;;;;;;;4.00;3.03;;;21.50;59.80;;;;;;5050301;28;20032;-63
2022/11/07 02:47:47;;;;;;;5.97;2.95;;;21.50;59.90;;;;;;5055551;28;20072;-63
2022/11/07 02:50:15;;;;;;;5.75;3.40;;;21.50;59.90;;;;;;5050912;28;20749;-63
2022/11/07 02:52:41;;;;;;;5.22;2.90;;;21.40;59.80;;;;;;5054589;28;20496;-62
2022/11/07 02:55:08;;;;;;;5.50;3.17;;;21.50;59.90;;;;;;5055298;28;20024;-63
2022/11/07 02:57:34;;;;;;;4.30;3.10;;;21.40;59.80;;;;;;5047901;28;20036;-63
2022/11/07 03:00:00;;;;;;;4.90;3.10;;;21.40;59.80;;;;;;5049265;28;20442;-63
2022/11/07 03:02:25;;;;;;;5.38;3.05;;;21.40;59.90;;;;;;5049861;28;20034;-62
2022/11/07 03:04:51;;;;;;;4.50;2.80;;;21.40;59.90;;;;;;5051488;28;20476;-63
2022/11/07 03:07:17;;;;;;;4.68;2.90;;;21.40;59.90;;;;;;5061380;28;20437;-63
2022/11/07 03:09:42;;;;;;;4.32;2.70;;;21.40;60.00;;;;;;5057899;28;20025;-62
2022/11/07 03:12:08;;;;;;;4.85;3.30;;;21.40;59.90;;;;;;5054723;28;20021;-64
2022/11/07 03:14:34;;;;;;;5.07;3.10;;;21.40;59.90;;;;;;5037092;28;20365;-63
2022/11/07 03:16:59;;;;;;;4.20;2.90;;;21.40;60.00;;;;;;5049710;28;20032;-63
2022/11/07 03:19:25;;;;;;;4.80;2.90;;;21.40;60.00;;;;;;5049434;28;20068;-62
2022/11/07 03:21:51;;;;;;;4.85;3.00;;;21.40;60.00;;;;;;5049513;28;20503;-63
2022/11/07 03:24:17;;;;;;;4.35;2.80;;;21.30;59.80;;;;;;5047924;28;20028;-64
2022/11/07 03:26:42;;;;;;;5.22;2.95;;;21.30;59.80;;;;;;5056832;28;20033;-62
2022/11/07 03:29:08;;;;;;;4.80;3.10;;;21.40;59.90;;;;;;5058055;28;20025;-64
2022/11/07 03:31:34;;;;;;;4.88;2.88;;;21.40;59.90;;;;;;5058015;28;20049;-62
2022/11/07 03:34:00;;;;;;;4.05;2.42;;;21.40;59.90;;;;;;5051454;28;20039;-63
2022/11/07 03:36:26;;;;;;;4.53;2.78;;;21.30;59.90;;;;;;5054122;28;20394;-63
2022/11/07 03:38:51;;;;;;;4.65;2.85;;;21.30;59.90;;;;;;5059565;28;20017;-64
2022/11/07 03:41:17;;;;;;;3.80;2.42;;;21.30;59.90;;;;;;5049955;28;20024;-62
2022/11/07 03:43:46;;;;;;;5.63;2.83;;;21.30;59.80;;;;;;5056705;28;20056;-62
2022/11/07 03:46:12;;;;;;;4.35;2.58;;;21.30;59.90;;;;;;5059508;28;20116;-63
2022/11/07 03:48:38;;;;;;;4.43;2.65;;;21.30;59.90;;;;;;5055500;28;20409;-63
2022/11/07 03:51:05;;;;;;;4.18;2.70;;;21.30;59.90;;;;;;5058544;28;20056;-63
2022/11/07 03:53:31;;;;;;;4.43;2.70;;;21.30;59.90;;;;;;5056490;28;20021;-64
2022/11/07 03:55:57;;;;;;;3.75;2.40;;;21.30;59.90;;;;;;5051456;28;20060;-62
2022/11/07 03:58:23;;;;;;;3.95;2.50;;;21.30;59.90;;;;;;5052786;28;20032;-63
2022/11/07 04:00:49;;;;;;;4.35;2.33;;;21.30;60.00;;;;;;5051570;28;20057;-63
2022/11/07 04:03:15;;;;;;;4.45;2.50;;;21.30;59.90;;;;;;5057954;28;20030;-63
2022/11/07 04:05:41;;;;;;;4.28;2.70;;;21.20;59.90;;;;;;5064866;28;20028;-63
2022/11/07 04:08:06;;;;;;;4.43;2.83;;;21.30;59.90;;;;;;5063540;28;20032;-64
2022/11/07 04:10:32;;;;;;;3.60;2.50;;;21.30;59.90;;;;;;5053665;28;20715;-64
2022/11/07 04:18:28;;;;;;;3.20;2.30;;;21.20;59.80;;;;;;5052207;28;20055;-62
2022/11/07 04:20:53;;;;;;;4.63;2.70;;;21.30;59.90;;;;;;5055846;28;20426;-63
2022/11/07 04:23:19;;;;;;;3.88;2.50;;;21.20;59.90;;;;;;5059362;28;20028;-63
2022/11/07 04:28:28;;;;;;;3.78;2.25;;;21.20;59.90;;;;;;5058328;28;20031;-62
2022/11/07 04:30:54;;;;;;;3.58;2.17;;;21.20;59.90;;;;;;5053106;28;20038;-63
2022/11/07 04:33:19;;;;;;;3.30;2.05;;;21.20;59.90;;;;;;5048952;28;20083;-62
2022/11/07 04:35:45;;;;;;;4.03;2.60;;;21.20;59.90;;;;;;5054424;28;20067;-63
2022/11/07 04:38:11;;;;;;;3.50;2.20;;;21.20;59.90;;;;;;5054039;28;20061;-62
2022/11/07 04:40:36;;;;;;;3.42;2.40;;;21.20;59.90;;;;;;5051278;28;20021;-63
2022/11/07 04:43:07;;;;;;;4.15;2.42;;;21.20;59.90;;;;;;5064178;28;20537;-63
2022/11/07 04:45:35;;;;;;;3.58;2.20;;;21.20;59.90;;;;;;5056923;28;20029;-62
2022/11/07 04:48:01;;;;;;;2.90;2.00;;;21.20;59.90;;;;;;5055406;28;20116;-62
2022/11/07 04:50:26;;;;;;;3.10;1.90;;;21.20;59.90;;;;;;5054314;28;20115;-62
2022/11/07 04:52:52;;;;;;;3.58;2.25;;;21.20;59.90;;;;;;5051116;28;20033;-64
2022/11/07 04:55:25;;;;;;;3.97;2.40;;;21.20;59.90;;;;;;5054862;28;20021;-63
2022/11/07 04:57:51;;;;;;;3.35;2.33;;;21.20;59.80;;;;;;5050501;28;20037;-62
2022/11/07 05:00:18;;;;;;;3.45;2.20;;;21.20;59.80;;;;;;5054589;28;20064;-62
2022/11/07 05:02:45;;;;;;;3.20;2.25;;;21.20;59.80;;;;;;5058639;28;20041;-61
2022/11/07 05:05:11;;;;;;;3.55;2.38;;;21.20;59.80;;;;;;5060889;28;20032;-62
2022/11/07 05:07:37;;;;;;;3.30;2.10;;;21.20;59.80;;;;;;5052590;28;20711;-62
2022/11/07 05:10:04;;;;;;;3.28;2.00;;;21.20;59.80;;;;;;5052114;28;20032;-63
2022/11/07 05:12:30;;;;;;;3.35;2.03;;;21.20;59.90;;;;;;5056435;28;20480;-63
2022/11/07 05:14:56;;;;;;;3.30;2.08;;;21.20;59.80;;;;;;5055892;28;20021;-62
2022/11/07 05:17:22;;;;;;;3.42;2.08;;;21.20;59.80;;;;;;5052953;28;20091;-62
2022/11/07 05:19:47;;;;;;;3.53;2.20;;;21.20;59.80;;;;;;5056446;28;20040;-64
2022/11/07 05:24:57;;;;;;;3.92;2.42;;;21.20;59.80;;;;;;5048759;28;20039;-62
2022/11/07 05:27:23;;;;;;;3.47;2.10;;;21.20;59.80;;;;;;5059122;28;20483;-63
2022/11/07 05:29:49;;;;;;;3.78;2.13;;;21.20;59.80;;;;;;5052980;28;20114;-62
2022/11/07 05:32:16;;;;;;;3.42;2.25;;;21.20;59.80;;;;;;5048045;28;20599;-64
2022/11/07 05:34:41;;;;;;;3.55;2.05;;;21.20;59.80;;;;;;5055923;28;20094;-63
2022/11/07 05:37:11;;;;;;;3.42;2.22;;;21.20;59.90;;;;;;5052273;28;20120;-62
2022/11/07 05:39:37;;;;;;;3.45;2.00;;;21.10;59.80;;;;;;5062364;28;20489;-62
2022/11/07 05:42:03;;;;;;;3.13;2.00;;;21.10;59.80;;;;;;5062664;28;20025;-63
2022/11/07 05:44:29;;;;;;;3.22;1.95;;;21.10;59.80;;;;;;5044829;28;20028;-63
2022/11/07 05:46:56;;;;;;;3.35;2.10;;;21.10;60.30;;;;;;5056031;28;20115;-63
2022/11/07 05:49:23;;;;;;;3.53;2.00;;;21.20;59.90;;;;;;5060804;28;20024;-63
2022/11/07 05:51:48;;;;;;;3.28;2.10;;;21.10;59.90;;;;;;5056648;28;20025;-63
2022/11/07 05:54:14;;;;;;;3.35;2.05;;;21.10;59.80;;;;;;5059169;28;20140;-64
2022/11/07 05:56:42;;;;;;;3.28;2.20;;;21.10;59.90;;;;;;5058348;28;20489;-68
2022/11/07 05:59:08;;;;;;;3.95;2.30;;;21.10;59.90;;;;;;5058598;28;20367;-62
2022/11/07 06:01:34;;;;;;;3.15;1.92;;;21.10;59.90;;;;;;5047922;28;20111;-62
2022/11/07 06:03:59;;;;;;;3.10;1.98;;;21.10;59.90;;;;;;5050682;28;20111;-63
2022/11/07 06:06:25;;;;;;;2.95;1.75;;;21.10;59.90;;;;;;5053442;28;20021;-64
2022/11/07 06:08:51;;;;;;;3.13;1.92;;;21.10;59.90;;;;;;5052193;28;20434;-61
2022/11/07 06:11:16;;;;;;;3.75;2.03;;;21.10;59.90;;;;;;5053784;28;20108;-62
2022/11/07 06:13:42;;;;;;;4.32;2.42;;;21.10;59.90;;;;;;5054650;28;20388;-62
2022/11/07 06:16:07;;;;;;;2.97;1.75;;;21.10;59.90;;;;;;5055085;28;20036;-62
2022/11/07 06:18:36;;;;;;;3.17;1.90;;;21.10;59.90;;;;;;5066481;28;20138;-63
2022/11/07 06:21:02;;;;;;;2.63;1.73;;;21.10;59.90;;;;;;5049704;28;20051;-60
2022/11/07 06:23:27;;;;;;;3.30;2.00;;;21.10;60.00;;;;;;5048451;28;20489;-63
2022/11/07 06:25:53;;;;;;;3.08;2.10;;;21.10;60.40;;;;;;5058525;28;20045;-63
2022/11/07 06:28:19;;;;;;;3.78;2.20;;;21.20;61.60;;;;;;5058327;28;20107;-63
2022/11/07 06:30:44;;;;;;;3.50;2.10;;;21.30;61.40;;;;;;5055225;28;20116;-62
2022/11/07 06:33:15;;;;;;;3.10;1.98;;;21.50;61.40;;;;;;5054276;28;20495;-62
2022/11/07 06:35:41;;;;;;;3.28;2.10;;;21.60;61.00;;;;;;5049154;28;20028;-63
2022/11/07 06:38:09;;;;;;;4.03;2.50;;;21.80;60.60;;;;;;5049407;28;20539;-61
2022/11/07 06:40:36;;;;;;;3.03;1.98;;;21.90;60.40;;;;;;5047390;28;20021;-62
2022/11/07 06:43:19;;;;;;;3.58;2.00;;;22.10;60.30;;;;;;5053713;28;20017;-64
2022/11/07 06:45:46;;;;;;;3.53;2.00;;;22.20;59.90;;;;;;5058976;28;20051;-63
2022/11/07 06:48:12;;;;;;;2.80;1.70;;;22.30;59.60;;;;;;5052283;28;20021;-63
2022/11/07 06:50:38;;;;;;;2.97;1.70;;;22.30;59.00;;;;;;5056868;28;20432;-63
2022/11/07 06:53:07;;;;;;;3.08;1.83;;;22.40;58.90;;;;;;5052857;28;20032;-63
2022/11/07 06:55:37;;;;;;;2.97;1.50;;;22.30;58.80;;;;;;5061597;28;20072;-63
2022/11/07 06:58:03;;;;;;;2.70;1.65;;;22.30;58.80;;;;;;5052022;28;20024;-62
2022/11/07 07:00:30;;;;;;;2.42;1.65;;;22.30;58.80;;;;;;5048537;28;20036;-63
2022/11/07 07:02:56;;;;;;;3.08;1.90;;;22.30;58.80;;;;;;5053884;28;20124;-62
2022/11/07 07:05:22;;;;;;;2.72;1.80;;;22.30;58.80;;;;;;5060248;28;20095;-62
2022/11/07 07:07:48;;;;;;;2.72;1.90;;;22.30;58.70;;;;;;5057776;28;20045;-62
2022/11/07 07:10:14;;;;;;;2.60;1.70;;;22.30;58.70;;;;;;5060475;28;20100;-63
2022/11/07 07:12:39;;;;;;;3.25;1.67;;;22.30;58.60;;;;;;5052733;28;20025;-62
2022/11/07 07:15:06;;;;;;;2.55;1.60;;;22.40;58.50;;;;;;5048972;28;20029;-63
2022/11/07 07:17:31;;;;;;;2.78;2.00;;;22.40;58.50;;;;;;5050891;28;20082;-63
2022/11/07 07:19:57;;;;;;;2.60;1.60;;;22.40;58.40;;;;;;5055891;28;20135;-62
2022/11/07 07:22:23;;;;;;;2.63;1.50;;;22.40;58.40;;;;;;5060694;28;20539;-62
2022/11/07 07:24:51;;;;;;;2.83;1.80;;;22.40;58.30;;;;;;5059107;28;20438;-64
2022/11/07 07:27:19;;;;;;;2.80;1.70;;;22.40;58.30;;;;;;5056799;28;20035;-62
2022/11/07 07:29:47;;;;;;;2.50;1.60;;;22.40;58.30;;;;;;5060106;28;20032;-62
2022/11/07 07:32:13;;;;;;;2.42;1.65;;;22.40;58.20;;;;;;5060728;28;20071;-63
2022/11/07 07:34:39;;;;;;;2.50;1.60;;;22.50;58.20;;;;;;5056565;28;20033;-62
2022/11/07 07:37:04;;;;;;;2.78;1.50;;;22.50;58.10;;;;;;5056770;28;20017;-63
2022/11/07 07:39:30;;;;;;;2.95;1.70;;;22.50;58.10;;;;;;5056732;28;20094;-63
2022/11/07 07:41:56;;;;;;;2.70;1.70;;;22.50;58.00;;;;;;5063350;28;20139;-63
2022/11/07 07:44:21;;;;;;;2.42;1.58;;;22.50;58.00;;;;;;5065912;28;20500;-62
2022/11/07 07:46:47;;;;;;;2.88;1.85;;;22.50;57.90;;;;;;5054629;28;20056;-63
2022/11/07 07:49:13;;;;;;;3.38;2.10;;;22.60;58.00;;;;;;5051916;28;20059;-63
2022/11/07 07:51:38;;;;;;;3.42;2.13;;;22.60;57.60;;;;;;5050498;28;20017;-63
2022/11/07 07:54:04;;;;;;;3.65;2.40;;;22.60;57.40;;;;;;5051675;28;20036;-63
2022/11/07 07:56:29;;;;;;;3.30;2.03;;;22.70;57.20;;;;;;5058338;28;20035;-62
2022/11/07 07:58:55;;;;;;;3.33;2.20;;;22.70;57.10;;;;;;5057031;28;20016;-62
2022/11/07 08:01:20;;;;;;;3.40;2.17;;;22.70;57.00;;;;;;5062814;28;20033;-62
2022/11/07 08:03:46;;;;;;;3.40;1.95;;;22.70;57.00;;;;;;5060364;28;20442;-62
2022/11/07 08:06:12;;;;;;;2.92;2.05;;;22.70;56.90;;;;;;5054959;28;20025;-62
2022/11/07 08:08:37;;;;;;;3.35;2.10;;;22.70;56.90;;;;;;5058085;28;20395;-62
2022/11/07 08:11:06;;;;;;;3.30;2.20;;;22.70;56.90;;;;;;5055739;28;20056;-63
2022/11/07 08:13:32;;;;;;;3.35;2.17;;;22.70;56.90;;;;;;5057214;28;20031;-62
2022/11/07 08:15:57;;;;;;;3.40;2.10;;;22.70;56.90;;;;;;5051460;28;20049;-62
2022/11/07 08:18:23;;;;;;;3.00;2.15;;;22.70;57.00;;;;;;5050146;28;20122;-61
2022/11/07 08:20:53;;;;;;;2.78;2.00;;;22.70;57.10;;;;;;5059635;28;20443;-62
2022/11/07 08:23:20;;;;;;;2.90;2.00;;;22.70;57.10;;;;;;5048383;28;20021;-62
2022/11/07 08:25:55;;;;;;;3.25;2.10;;;22.70;57.10;;;;;;5054373;28;20518;-61
2022/11/07 08:28:23;;;;;;;2.90;2.05;;;22.70;57.10;;;;;;5061182;28;20032;-62
2022/11/07 08:30:57;;;;;;;2.88;1.88;;;22.70;57.10;;;;;;5060865;28;20073;-62
2022/11/07 08:33:22;;;;;;;3.17;2.00;;;22.70;57.20;;;;;;5053852;28;20051;-62
2022/11/07 08:35:48;;;;;;;3.15;2.00;;;22.70;57.20;;;;;;5055059;28;20029;-62
2022/11/07 08:38:14;;;;;;;2.72;1.80;;;22.70;57.20;;;;;;5062341;28;20472;-64
2022/11/07 08:40:39;;;;;;;2.95;1.92;;;22.70;57.20;;;;;;5057006;28;20061;-61
2022/11/07 08:43:05;;;;;;;3.15;1.90;;;22.70;57.30;;;;;;5057735;28;20379;-61
2022/11/07 08:45:31;;;;;;;2.92;1.88;;;22.70;57.30;;;;;;5054863;28;20036;-62
2022/11/07 08:47:58;;;;;;;2.63;1.83;;;22.70;57.30;;;;;;5057266;28;20555;-63
2022/11/07 08:50:24;;;;;;;3.85;2.38;;;22.70;57.40;;;;;;5059664;28;20048;-62
2022/11/07 08:52:50;;;;;;;3.10;1.90;;;22.70;57.80;;;;;;5054340;28;20471;-64
2022/11/07 08:55:15;;;;;;;3.50;2.10;;;22.70;57.30;;;;;;5051917;28;20047;-62
2022/11/07 08:57:41;;;;;;;2.95;1.75;;;22.70;57.30;;;;;;5043449;28;20078;-63
2022/11/07 09:00:07;;;;;;;2.90;1.88;;;22.80;57.40;;;;;;5049807;28;20032;-65
2022/11/07 09:02:33;;;;;;;3.00;2.00;;;22.80;57.40;;;;;;5057499;28;20512;-63
2022/11/07 09:04:58;;;;;;;3.00;2.05;;;22.80;57.30;;;;;;5070469;28;20032;-62
2022/11/07 09:07:24;;;;;;;2.30;1.60;;;22.80;57.30;;;;;;5059054;28;20037;-63
2022/11/07 09:09:49;;;;;;;2.88;1.95;;;22.80;57.30;;;;;;5051603;28;20491;-62
2022/11/07 09:12:15;;;;;;;3.22;2.10;;;22.80;57.30;;;;;;5052119;28;20033;-62
2022/11/07 09:14:40;;;;;;;3.40;2.00;;;22.80;57.30;;;;;;5055375;28;20068;-62
2022/11/07 09:17:06;;;;;;;2.85;1.88;;;22.80;57.30;;;;;;5061770;28;20025;-64
2022/11/07 09:19:32;;;;;;;3.45;2.35;;;22.80;57.30;;;;;;5070333;28;20029;-62
2022/11/07 09:21:57;;;;;;;3.03;1.92;;;22.80;57.30;;;;;;5061520;28;20029;-63
2022/11/07 09:24:23;;;;;;;2.92;2.00;;;22.80;57.30;;;;;;5058235;28;20029;-62
2022/11/07 09:26:48;;;;;;;2.60;1.60;;;22.80;57.30;;;;;;5059004;28;20068;-63
2022/11/07 09:29:14;;;;;;;2.90;2.00;;;22.80;57.30;;;;;;5059100;28;20021;-62
2022/11/07 09:31:40;;;;;;;2.83;1.88;;;22.90;57.40;;;;;;5059763;28;20119;-63
2022/11/07 09:34:06;;;;;;;2.67;1.70;;;22.80;57.20;;;;;;5045749;28;20026;-63
2022/11/07 09:36:32;;;;;;;2.95;1.88;;;22.80;57.30;;;;;;5053874;28;20476;-63
2022/11/07 09:38:59;;;;;;;3.03;1.85;;;22.90;57.30;;;;;;5053957;28;20422;-64
2022/11/07 09:41:52;;;;;;;3.38;1.83;;;22.90;57.20;;;;;;5054815;28;20104;-62
2022/11/07 09:44:46;;;;;;;2.95;1.90;;;22.90;57.20;;;;;;5045635;28;20029;-63
2022/11/07 09:47:38;;;;;;;2.33;1.70;;;22.90;57.20;;;;;;5052116;28;20032;-63
2022/11/07 09:50:28;;;;;;;2.95;1.83;;;22.90;57.30;;;;;;5022843;28;20121;-63
2022/11/07 09:53:10;;;;;;;2.90;1.80;;;22.90;57.20;;;;;;5056308;28;20021;-62
2022/11/07 09:55:40;;;;;;;3.28;2.08;;;22.90;57.20;;;;;;5062276;28;20503;-64
2022/11/07 09:58:24;;;;;;;3.42;1.92;;;22.90;57.20;;;;;;5073790;28;20509;-63
2022/11/07 10:00:50;;;;;;;2.80;1.70;;;22.90;57.20;;;;;;5042654;28;20033;-63
2022/11/07 10:03:16;;;;;;;3.05;1.80;;;22.90;57.20;;;;;;5067401;28;20106;-63
2022/11/07 10:06:04;;;;;;;2.97;1.85;;;22.90;57.20;;;;;;5071574;28;20021;-62
2022/11/07 10:08:49;;;;;;;3.13;1.80;;;22.90;57.20;;;;;;5053946;28;20033;-63
2022/11/07 10:11:31;;;;;;;2.80;1.73;;;22.90;57.20;;;;;;5056280;28;20083;-63
2022/11/07 10:14:29;;;;;;;2.58;1.63;;;22.90;57.20;;;;;;5060867;28;20472;-63
2022/11/07 10:17:24;;;;;;;3.42;1.90;;;22.90;57.20;;;;;;5019801;28;20388;-63
2022/11/07 10:20:17;;;;;;;2.88;1.80;;;22.90;57.20;;;;;;5060979;28;20056;-63
2022/11/07 10:22:51;;;;;;;2.65;1.83;;;22.90;57.20;;;;;;5057251;28;20534;-62
2022/11/07 10:25:29;;;;;;;2.80;1.80;;;22.90;57.20;;;;;;5052080;28;20024;-62
2022/11/07 10:28:06;;;;;;;2.70;1.80;;;22.90;57.20;;;;;;5052111;28;20040;-62
2022/11/07 10:30:33;;;;;;;2.80;1.80;;;22.90;57.20;;;;;;5052969;28;20086;-62
2022/11/07 10:33:12;;;;;;;2.28;1.58;;;22.90;57.10;;;;;;5060247;28;20380;-63
2022/11/07 10:35:44;;;;;;;2.70;1.80;;;22.90;57.20;;;;;;5061048;28;20112;-63
2022/11/07 10:38:21;;;;;;;2.92;1.80;;;23.00;57.20;;;;;;5050150;28;20116;-62
2022/11/07 10:40:50;;;;;;;2.60;1.80;;;23.00;57.70;;;;;;5051813;28;20025;-62
2022/11/07 10:43:21;;;;;;;2.88;1.75;;;23.00;57.20;;;;;;5069631;28;20074;-62
2022/11/07 10:45:47;;;;;;;3.25;2.20;;;23.00;57.70;;;;;;5054662;28;20528;-62
2022/11/07 10:48:13;;;;;;;2.40;1.63;;;23.00;57.20;;;;;;5052257;28;20523;-63
2022/11/07 10:50:39;;;;;;;2.30;1.58;;;23.00;57.20;;;;;;5054569;28;20116;-63
2022/11/07 10:53:08;;;;;;;3.83;2.00;;;23.00;57.20;;;;;;5065345;28;20388;-62
2022/11/07 10:55:46;;;;;;;2.40;1.70;;;23.00;57.20;;;;;;5056801;28;20380;-61
2022/11/07 10:58:33;;;;;;;4.25;1.80;;;23.00;57.10;;;;;;5062444;28;20093;-63
2022/11/07 11:01:07;;;;;;;2.47;1.63;;;23.00;57.10;;;;;;5065456;28;20033;-62
2022/11/07 11:03:38;;;;;;;2.35;1.58;;;23.00;57.10;;;;;;5058112;28;20040;-63
2022/11/07 11:06:30;;;;;;;2.92;1.70;;;23.00;57.00;;;;;;5067891;28;20025;-63
2022/11/07 11:08:56;;;;;;;2.90;1.85;;;23.00;56.90;;;;;;5060061;28;20104;-61
2022/11/07 11:11:33;;;;;;;2.38;1.60;;;23.00;56.90;;;;;;5075940;28;20439;-64
2022/11/07 11:14:13;;;;;;;2.20;1.50;;;23.00;56.90;;;;;;5062244;28;20028;-62
2022/11/07 11:16:40;;;;;;;2.17;1.60;;;23.00;56.90;;;;;;5058379;28;20097;-64
2022/11/07 11:19:18;;;;;;;2.72;1.80;;;23.00;56.80;;;;;;5053054;28;20025;-62
2022/11/07 11:21:46;;;;;;;2.55;1.63;;;23.00;56.80;;;;;;5054960;28;20047;-63
2022/11/07 11:24:25;;;;;;;2.47;1.50;;;23.00;56.70;;;;;;5056463;28;20026;-63
2022/11/07 11:26:52;;;;;;;2.40;1.60;;;23.10;56.70;;;;;;5053842;28;20033;-63
2022/11/07 11:29:32;;;;;;;2.20;1.40;;;23.10;56.60;;;;;;5053590;28;20369;-62
2022/11/07 11:32:02;;;;;;;2.70;1.70;;;23.10;57.10;;;;;;5047376;28;20059;-62
2022/11/07 11:34:48;;;;;;;3.00;1.30;;;23.10;56.90;;;;;;5055480;28;20426;-62
2022/11/07 11:37:20;;;;;;;2.42;1.50;;;23.10;56.90;;;;;;5057747;28;20498;-62
2022/11/07 11:39:54;;;;;;;3.00;1.70;;;23.00;56.80;;;;;;5054399;28;20025;-62
2022/11/07 11:42:46;;;;;;;2.30;1.45;;;23.00;56.80;;;;;;5058415;28;20036;-62
2022/11/07 11:45:28;;;;;;;2.53;1.30;;;23.00;57.30;;;;;;5056108;28;20055;-62
2022/11/07 11:48:00;;;;;;;2.83;1.60;;;23.00;56.70;;;;;;5062548;28;20073;-62
2022/11/07 11:50:51;;;;;;;3.53;1.50;;;23.00;56.70;;;;;;5055754;28;20022;-62
2022/11/07 11:53:19;;;;;;;2.40;1.50;;;23.00;56.80;;;;;;5056491;28;20606;-63
2022/11/07 11:56:20;;;;;;;3.28;1.65;;;23.00;56.90;;;;;;5054428;28;20024;-62
2022/11/07 11:59:27;;;;;;;2.30;1.40;;;23.00;57.00;;;;;;5024418;28;20399;-64
2022/11/07 12:02:13;;;;;;;2.60;1.48;;;23.00;57.10;;;;;;5055239;28;20030;-62
2022/11/07 12:04:57;;;;;;;2.08;1.25;;;23.00;57.10;;;;;;5052944;28;20571;-64
2022/11/07 12:07:38;;;;;;;2.08;1.30;;;23.00;57.20;;;;;;5050020;28;20031;-61
2022/11/07 12:10:12;;;;;;;2.42;1.60;;;23.00;57.20;;;;;;5051690;28;20051;-61
2022/11/07 12:13:10;;;;;;;2.05;1.33;;;23.00;57.10;;;;;;5060198;28;20082;-62
2022/11/07 12:16:20;;;;;;;2.45;1.35;;;23.00;57.20;;;;;;4990579;28;20041;-63
2022/11/07 12:19:02;;;;;;;2.78;1.40;;;23.00;57.10;;;;;;5056901;28;20031;-62
2022/11/07 12:21:32;;;;;;;2.55;1.40;;;23.00;57.10;;;;;;5056440;28;20082;-63
2022/11/07 12:24:37;;;;;;;1.65;1.10;;;23.00;57.10;;;;;;5055983;28;20033;-62
2022/11/07 12:27:05;;;;;;;2.40;1.30;;;23.00;57.10;;;;;;5059270;28;20483;-64
2022/11/07 12:29:46;;;;;;;2.28;1.50;;;23.10;57.10;;;;;;5053399;28;20033;-63
2022/11/07 12:32:27;;;;;;;2.35;1.30;;;23.10;57.10;;;;;;5058842;28;20036;-63
2022/11/07 12:35:01;;;;;;;2.13;1.23;;;23.10;57.00;;;;;;5061428;28;20056;-64
2022/11/07 12:37:37;;;;;;;1.90;1.27;;;23.10;57.00;;;;;;5055047;28;20385;-65
2022/11/07 12:40:36;;;;;;;2.60;1.30;;;23.10;57.00;;;;;;5054200;28;20017;-65
2022/11/07 12:43:16;;;;;;;1.98;1.40;;;23.20;57.00;;;;;;5053330;28;20369;-65
2022/11/07 12:46:01;;;;;;;2.00;1.30;;;23.20;57.10;;;;;;5054927;28;20032;-65
2022/11/07 12:48:59;;;;;;;2.03;1.30;;;23.20;57.10;;;;;;5056171;28;20025;-64
2022/11/07 12:51:39;;;;;;;3.63;1.40;;;23.20;57.00;;;;;;5052592;28;20455;-64
2022/11/07 12:54:10;;;;;;;1.83;1.25;;;23.20;57.00;;;;;;5059086;28;20025;-64
2022/11/07 12:56:38;;;;;;;1.70;1.20;;;23.20;56.80;;;;;;5059483;28;20021;-65
2022/11/07 12:59:10;;;;;;;1.95;1.20;;;23.20;56.80;;;;;;5055843;28;20024;-64
2022/11/07 13:01:48;;;;;;;2.00;1.10;;;23.20;56.90;;;;;;5047064;28;20029;-64
2022/11/07 13:04:33;;;;;;;2.30;1.38;;;23.20;56.80;;;;;;5040976;28;20033;-65
2022/11/07 13:07:03;;;;;;;1.73;1.20;;;23.20;56.70;;;;;;5055281;28;20489;-64
2022/11/07 13:09:28;;;;;;;2.33;1.30;;;23.30;56.70;;;;;;5049331;28;20471;-64
2022/11/07 13:12:09;;;;;;;1.88;1.17;;;23.30;56.60;;;;;;5047342;28;20021;-64
2022/11/07 13:14:40;;;;;;;1.80;1.25;;;23.30;56.70;;;;;;5041025;28;20032;-64
2022/11/07 13:17:23;;;;;;;2.05;1.30;;;23.30;56.70;;;;;;5045671;28;20387;-64